Rowena, Missouri
Current Conditions -  °F | °C
As of 11:54 PM on Sunday 19 Oct 2014 (Local Time) from KCOU Reporting Station
Overcast Overcast  
Wind Chill: 54°   Ceiling: 10000
Heat Index: 54°   Visibility: 10mi
Dew Point: 48°   Wind: 9mph
Humidity: 80%   Direction: 200°SSW
Pressure: 30.02"   Gusts: NA
Location:  39.2043°N, 92.1568°W
Report Text: KCOU 200454Z AUTO 20008KT 10SM OVC100 12/09 A3002 RMK AO2 SLP163 T01220089
Loading
Personal Weather Stations






























Interactive Weather Map New forecast layout! Learn more

10-Day Weather Forecast

Advertisements
Track Severe Weather on mobile